createdAt,value
2018-12-21T00:00:09.703Z,0.00
2018-12-21T00:01:09.685Z,0.00
2018-12-21T00:02:09.696Z,0.00
2018-12-21T00:03:09.666Z,0.00
2018-12-21T00:04:09.654Z,0.00
2018-12-21T00:05:09.669Z,0.00
2018-12-21T00:06:09.646Z,0.00
2018-12-21T00:07:09.637Z,0.00
2018-12-21T00:08:09.630Z,0.00
2018-12-21T00:09:09.613Z,0.00
2018-12-21T00:10:09.603Z,0.00
2018-12-21T00:11:09.600Z,0.00
2018-12-21T00:12:09.577Z,0.00
2018-12-21T00:13:09.556Z,0.00
2018-12-21T00:14:09.560Z,0.00
2018-12-21T00:15:09.574Z,0.00
2018-12-21T00:16:09.527Z,0.00
2018-12-21T00:17:09.519Z,0.00
2018-12-21T00:18:09.512Z,0.00
2018-12-21T00:19:09.496Z,0.00
2018-12-21T00:20:09.490Z,0.00
2018-12-21T00:21:09.493Z,0.00
2018-12-21T00:22:09.458Z,0.00
2018-12-21T00:23:09.465Z,0.00
2018-12-21T00:24:09.452Z,0.00
2018-12-21T00:25:09.447Z,0.00
2018-12-21T00:26:09.428Z,0.00
2018-12-21T00:27:09.419Z,0.00
2018-12-21T00:28:09.393Z,0.00
2018-12-21T00:29:09.393Z,0.00
2018-12-21T00:30:09.383Z,0.00
2018-12-21T00:31:09.374Z,0.00
2018-12-21T00:32:09.355Z,0.00
2018-12-21T00:33:09.346Z,0.00
2018-12-21T00:34:09.335Z,0.00
2018-12-21T00:35:09.329Z,0.00
2018-12-21T00:36:09.317Z,0.00
2018-12-21T00:37:09.312Z,0.00
2018-12-21T00:38:09.292Z,0.00
2018-12-21T00:39:09.284Z,0.00
2018-12-21T00:40:09.288Z,0.00
2018-12-21T00:41:09.264Z,0.00
2018-12-21T00:42:09.258Z,0.00
2018-12-21T00:43:09.240Z,0.00
2018-12-21T00:44:09.239Z,0.00
2018-12-21T00:45:09.265Z,0.00
2018-12-21T00:46:09.219Z,0.00
2018-12-21T00:47:09.205Z,0.00
2018-12-21T00:48:09.184Z,0.00
2018-12-21T00:49:09.174Z,0.00
2018-12-21T00:50:09.182Z,0.00
2018-12-21T00:51:09.154Z,0.00
2018-12-21T00:52:09.150Z,0.00
2018-12-21T00:53:09.143Z,0.00
2018-12-21T00:54:09.119Z,0.00
2018-12-21T00:55:09.111Z,0.00
2018-12-21T00:56:09.110Z,0.00
2018-12-21T00:57:09.092Z,0.00
2018-12-21T00:58:09.085Z,0.00
2018-12-21T00:59:09.077Z,0.00
2018-12-21T01:00:09.064Z,0.00
2018-12-21T01:01:09.054Z,0.00
2018-12-21T01:02:09.028Z,0.00
2018-12-21T01:03:09.036Z,0.00
2018-12-21T01:04:09.020Z,0.00
2018-12-21T01:05:08.995Z,0.00
2018-12-21T01:06:08.989Z,0.00
2018-12-21T01:07:08.982Z,0.00
2018-12-21T01:08:08.977Z,0.00
2018-12-21T01:09:08.959Z,0.00
2018-12-21T01:10:08.968Z,0.00
2018-12-21T01:11:08.937Z,0.00
2018-12-21T01:12:08.920Z,0.00
2018-12-21T01:13:08.945Z,0.00
2018-12-21T01:14:08.898Z,0.00
2018-12-21T01:15:08.902Z,0.00
2018-12-21T01:16:08.881Z,0.00
2018-12-21T01:17:08.891Z,0.00
2018-12-21T01:18:08.878Z,0.00
2018-12-21T01:19:08.860Z,0.00
2018-12-21T01:20:08.841Z,0.00
2018-12-21T01:21:08.824Z,0.00
2018-12-21T01:22:08.825Z,0.00
2018-12-21T01:23:08.812Z,0.00
2018-12-21T01:24:08.795Z,0.00
2018-12-21T01:25:08.783Z,0.00
2018-12-21T01:26:08.815Z,0.00
2018-12-21T01:27:08.772Z,0.00
2018-12-21T01:28:08.750Z,0.00
2018-12-21T01:29:08.748Z,0.00
2018-12-21T01:30:08.725Z,0.00
2018-12-21T01:31:08.729Z,0.00
2018-12-21T01:32:08.735Z,0.00
2018-12-21T01:33:08.708Z,0.00
2018-12-21T01:34:08.686Z,0.00
2018-12-21T01:35:08.681Z,0.00
2018-12-21T01:36:08.676Z,0.00
2018-12-21T01:37:08.660Z,0.00
2018-12-21T01:38:08.652Z,0.00
2018-12-21T01:39:08.631Z,0.00
2018-12-21T01:40:08.660Z,0.00
2018-12-21T01:41:08.606Z,0.00
2018-12-21T01:42:08.600Z,0.00
2018-12-21T01:43:08.595Z,0.00
2018-12-21T01:44:08.590Z,0.00
2018-12-21T01:45:08.582Z,0.00
2018-12-21T01:46:08.566Z,0.00
2018-12-21T01:47:08.558Z,0.00
2018-12-21T01:48:08.545Z,0.00
2018-12-21T01:49:08.536Z,0.00
2018-12-21T01:50:08.509Z,0.00
2018-12-21T01:51:08.636Z,0.00
2018-12-21T01:52:08.489Z,0.00
2018-12-21T01:53:08.499Z,0.00
2018-12-21T01:54:08.472Z,0.00
2018-12-21T01:55:08.462Z,0.00
2018-12-21T01:56:08.450Z,0.00
2018-12-21T01:57:08.450Z,0.00
2018-12-21T01:58:08.431Z,0.00
2018-12-21T01:59:08.428Z,0.00
2018-12-21T02:00:08.418Z,0.00
2018-12-21T02:01:08.396Z,0.00
2018-12-21T02:02:08.427Z,0.00
2018-12-21T02:03:08.376Z,0.00
2018-12-21T02:04:08.359Z,0.00
2018-12-21T02:05:08.358Z,0.00
2018-12-21T02:06:08.350Z,0.00
2018-12-21T02:07:08.337Z,0.00
2018-12-21T02:08:08.342Z,0.00
2018-12-21T02:09:08.316Z,0.00
2018-12-21T02:10:08.306Z,0.00
2018-12-21T02:11:08.291Z,0.00
2018-12-21T02:12:08.296Z,0.00
2018-12-21T02:13:08.301Z,0.00
2018-12-21T02:14:08.270Z,0.00
2018-12-21T02:15:08.247Z,0.00
2018-12-21T02:16:08.231Z,0.00
2018-12-21T02:17:08.231Z,0.00
2018-12-21T02:18:08.214Z,0.00
2018-12-21T02:19:08.242Z,0.00
2018-12-21T02:20:08.197Z,0.00
2018-12-21T02:21:08.189Z,0.00
2018-12-21T02:22:08.166Z,0.00
2018-12-21T02:23:08.156Z,0.00
2018-12-21T02:24:08.150Z,0.00
2018-12-21T02:25:08.143Z,0.00
2018-12-21T02:26:08.125Z,0.00
2018-12-21T02:27:08.118Z,0.00
2018-12-21T02:28:08.113Z,0.00
2018-12-21T02:29:08.101Z,0.00
2018-12-21T02:30:08.146Z,0.00
2018-12-21T02:31:08.084Z,0.00
2018-12-21T02:32:08.074Z,0.00
2018-12-21T02:33:08.071Z,0.00
2018-12-21T02:34:08.057Z,0.00
2018-12-21T02:35:08.037Z,0.00
2018-12-21T02:36:08.044Z,0.00
2018-12-21T02:37:08.018Z,0.00
2018-12-21T02:38:07.998Z,0.00
2018-12-21T02:39:07.988Z,0.00
2018-12-21T02:40:07.993Z,0.00
2018-12-21T02:41:07.987Z,0.00
2018-12-21T02:42:07.978Z,0.00
2018-12-21T02:43:07.959Z,0.00
2018-12-21T02:44:07.950Z,0.00
2018-12-21T02:45:07.926Z,0.00
2018-12-21T02:46:07.921Z,0.00
2018-12-21T02:47:07.920Z,0.00
2018-12-21T02:48:07.901Z,0.00
2018-12-21T02:49:07.888Z,0.00
2018-12-21T02:50:07.879Z,0.00
2018-12-21T02:51:07.868Z,0.00
2018-12-21T02:52:07.864Z,0.00
2018-12-21T02:53:07.842Z,0.00
2018-12-21T02:54:07.835Z,0.00
2018-12-21T02:55:07.820Z,0.00
2018-12-21T02:56:07.824Z,0.00
2018-12-21T02:57:07.819Z,0.00
2018-12-21T02:58:07.808Z,0.00
2018-12-21T02:59:07.791Z,0.00
2018-12-21T03:00:07.772Z,0.00
2018-12-21T03:01:07.770Z,0.00
2018-12-21T03:02:07.766Z,0.00
2018-12-21T03:03:07.755Z,0.00
2018-12-21T03:04:07.736Z,0.00
2018-12-21T03:05:07.727Z,0.00
2018-12-21T03:06:07.709Z,0.00
2018-12-21T03:07:07.706Z,0.00
2018-12-21T03:08:07.691Z,0.00
2018-12-21T03:09:07.705Z,0.00
2018-12-21T03:10:07.665Z,0.00
2018-12-21T03:11:07.654Z,0.00
2018-12-21T03:12:07.639Z,0.00
2018-12-21T03:13:07.640Z,0.00
2018-12-21T03:14:07.616Z,0.00
2018-12-21T03:15:07.615Z,0.00
2018-12-21T03:16:07.606Z,0.00
2018-12-21T03:17:07.596Z,0.00
2018-12-21T03:18:07.593Z,0.00
2018-12-21T03:19:07.566Z,0.00
2018-12-21T03:20:07.560Z,0.00
2018-12-21T03:21:07.538Z,0.00
2018-12-21T03:22:14.677Z,0.00
2018-12-21T03:23:08.528Z,0.00
2018-12-21T03:24:07.512Z,0.00
2018-12-21T03:25:07.526Z,0.00
2018-12-21T03:26:07.489Z,0.00
2018-12-21T03:27:07.484Z,0.00
2018-12-21T03:28:07.477Z,0.00
2018-12-21T03:29:07.462Z,0.00
2018-12-21T03:30:07.470Z,0.00
2018-12-21T03:31:07.453Z,0.00
2018-12-21T03:32:07.427Z,0.00
2018-12-21T03:33:07.421Z,0.00
2018-12-21T03:34:07.402Z,0.00
2018-12-21T03:35:07.407Z,0.00
2018-12-21T03:36:07.438Z,0.00
2018-12-21T03:37:07.382Z,0.00
2018-12-21T03:38:07.357Z,0.00
2018-12-21T03:39:07.358Z,0.00
2018-12-21T03:40:07.351Z,0.00
2018-12-21T03:41:07.330Z,0.00
2018-12-21T03:42:07.327Z,0.00
2018-12-21T03:43:07.317Z,0.00
2018-12-21T03:44:07.294Z,0.00
2018-12-21T03:45:07.295Z,0.00
2018-12-21T03:46:07.282Z,0.00
2018-12-21T03:47:07.278Z,0.00
2018-12-21T03:48:07.261Z,0.00
2018-12-21T03:49:07.251Z,0.00
2018-12-21T03:50:07.237Z,0.00
2018-12-21T03:51:07.228Z,0.00
2018-12-21T03:52:07.238Z,0.00
2018-12-21T03:53:07.206Z,0.00
2018-12-21T03:54:07.191Z,0.00
2018-12-21T03:55:07.193Z,0.00
2018-12-21T03:56:07.176Z,0.00
2018-12-21T03:57:07.153Z,0.00
2018-12-21T03:58:07.181Z,0.00
2018-12-21T03:59:07.138Z,0.00
2018-12-21T04:00:07.123Z,0.00
2018-12-21T04:01:07.115Z,0.00
2018-12-21T04:02:07.107Z,0.00
2018-12-21T04:03:07.095Z,0.00
2018-12-21T04:04:07.093Z,0.00
2018-12-21T04:05:07.080Z,0.00
2018-12-21T04:06:07.059Z,0.00
2018-12-21T04:07:07.054Z,0.00
2018-12-21T04:08:07.047Z,0.00
2018-12-21T04:09:07.059Z,0.00
2018-12-21T04:10:07.025Z,0.00
2018-12-21T04:11:15.048Z,0.00
2018-12-21T04:12:07.005Z,0.00
2018-12-21T04:13:06.999Z,0.00
2018-12-21T04:14:08.533Z,0.00
2018-12-21T04:15:06.986Z,0.00
2018-12-21T04:16:06.954Z,0.00
2018-12-21T04:17:06.941Z,0.00
2018-12-21T04:18:08.629Z,0.00
2018-12-21T04:19:06.946Z,0.00
2018-12-21T04:20:06.909Z,0.00
2018-12-21T04:21:06.915Z,0.00
2018-12-21T04:22:06.903Z,0.00
2018-12-21T04:23:06.881Z,0.00
2018-12-21T04:24:06.884Z,0.00
2018-12-21T04:25:06.884Z,0.00
2018-12-21T04:26:06.913Z,0.00
2018-12-21T04:27:06.858Z,0.00
2018-12-21T04:28:06.839Z,0.00
2018-12-21T04:29:07.805Z,0.00
2018-12-21T04:30:06.818Z,0.00
2018-12-21T04:31:06.804Z,0.00
2018-12-21T04:32:06.792Z,0.00
2018-12-21T04:33:06.783Z,0.00
2018-12-21T04:34:06.760Z,0.00
2018-12-21T04:35:06.765Z,0.00
2018-12-21T04:36:06.748Z,0.00
2018-12-21T04:37:06.793Z,0.00
2018-12-21T04:38:06.733Z,0.00
2018-12-21T04:39:06.715Z,0.00
2018-12-21T04:40:06.705Z,0.00
2018-12-21T04:41:06.690Z,0.00
2018-12-21T04:42:06.691Z,0.00
2018-12-21T04:43:06.680Z,0.00
2018-12-21T04:44:06.671Z,0.00
2018-12-21T04:45:06.655Z,0.00
2018-12-21T04:46:06.660Z,0.00
2018-12-21T04:47:06.627Z,0.00
2018-12-21T04:48:06.634Z,0.00
2018-12-21T04:49:06.599Z,0.00
2018-12-21T04:50:06.595Z,0.00
2018-12-21T04:51:06.594Z,0.00
2018-12-21T04:52:06.579Z,0.00
2018-12-21T04:53:06.568Z,0.00
2018-12-21T04:54:06.560Z,0.00
2018-12-21T04:55:06.538Z,0.00
2018-12-21T04:56:06.532Z,0.00
2018-12-21T04:57:06.610Z,0.00
2018-12-21T04:58:06.545Z,0.00
2018-12-21T04:59:06.499Z,0.00
2018-12-21T05:00:06.495Z,0.00
2018-12-21T05:01:06.490Z,0.00
2018-12-21T05:02:06.465Z,0.00
2018-12-21T05:03:06.450Z,0.00
2018-12-21T05:04:06.455Z,0.00
2018-12-21T05:05:06.439Z,0.00
2018-12-21T05:06:06.421Z,0.00
2018-12-21T05:07:12.324Z,0.00
2018-12-21T05:08:07.397Z,0.00
2018-12-21T05:09:06.418Z,0.00
2018-12-21T05:10:06.385Z,0.00
2018-12-21T05:11:06.381Z,0.00
2018-12-21T05:12:06.371Z,0.00
2018-12-21T05:13:06.350Z,0.00
2018-12-21T05:14:08.050Z,0.00
2018-12-21T05:15:06.339Z,0.00
2018-12-21T05:16:06.328Z,0.00
2018-12-21T05:17:06.317Z,0.00
2018-12-21T05:18:06.296Z,0.00
2018-12-21T05:19:06.301Z,0.00
2018-12-21T05:20:06.280Z,0.00
2018-12-21T05:21:06.276Z,0.00
2018-12-21T05:22:06.251Z,0.00
2018-12-21T05:23:06.241Z,0.00
2018-12-21T05:24:06.235Z,0.00
2018-12-21T05:25:06.249Z,0.00
2018-12-21T05:26:06.218Z,0.00
2018-12-21T05:27:06.205Z,0.00
2018-12-21T05:28:06.185Z,0.00
2018-12-21T05:29:06.175Z,0.00
2018-12-21T05:30:06.168Z,0.00
2018-12-21T05:31:06.176Z,0.00
2018-12-21T05:32:06.159Z,0.00
2018-12-21T05:33:06.133Z,0.00
2018-12-21T05:34:06.127Z,0.00
2018-12-21T05:35:06.127Z,0.00
2018-12-21T05:36:06.106Z,0.00
2018-12-21T05:37:06.132Z,0.00
2018-12-21T05:38:06.098Z,0.00
2018-12-21T05:39:06.069Z,0.00
2018-12-21T05:40:06.057Z,0.00
2018-12-21T05:41:06.051Z,0.00
2018-12-21T05:42:06.047Z,0.00
2018-12-21T05:43:06.044Z,0.00
2018-12-21T05:44:06.025Z,0.00
2018-12-21T05:45:06.012Z,0.00
2018-12-21T05:46:05.994Z,0.00
2018-12-21T05:47:05.984Z,0.00
2018-12-21T05:48:06.001Z,0.00
2018-12-21T05:49:05.973Z,0.00
2018-12-21T05:50:05.957Z,0.00
2018-12-21T05:51:05.950Z,0.00
2018-12-21T05:52:05.930Z,0.00
2018-12-21T05:53:05.925Z,0.00
2018-12-21T05:54:05.934Z,0.00
2018-12-21T05:55:05.910Z,0.00
2018-12-21T05:56:05.902Z,0.00
2018-12-21T05:57:05.889Z,0.00
2018-12-21T05:58:05.878Z,0.00
2018-12-21T05:59:05.870Z,0.00
2018-12-21T06:00:05.854Z,0.00
2018-12-21T06:01:05.834Z,0.00
2018-12-21T06:02:05.830Z,0.00
2018-12-21T06:03:05.849Z,0.00
2018-12-21T06:04:05.807Z,0.00
2018-12-21T06:05:05.797Z,0.00
2018-12-21T06:06:05.786Z,0.00
2018-12-21T06:07:05.770Z,0.00
2018-12-21T06:08:05.774Z,0.00
2018-12-21T06:09:05.780Z,0.00
2018-12-21T06:10:05.753Z,0.00
2018-12-21T06:11:05.737Z,0.00
2018-12-21T06:12:05.721Z,0.00
2018-12-21T06:13:05.716Z,0.00
2018-12-21T06:14:05.718Z,0.00
2018-12-21T06:15:05.694Z,0.00
2018-12-21T06:16:05.676Z,0.00
2018-12-21T06:17:05.675Z,0.00
2018-12-21T06:18:05.651Z,0.00
2018-12-21T06:19:05.650Z,0.00
2018-12-21T06:20:05.650Z,0.00
2018-12-21T06:21:05.620Z,0.00
2018-12-21T06:22:05.616Z,0.00
2018-12-21T06:23:09.577Z,0.00
2018-12-21T06:24:05.594Z,0.00
2018-12-21T06:25:05.602Z,0.00
2018-12-21T06:26:05.582Z,0.00
2018-12-21T06:27:05.556Z,0.00
2018-12-21T06:28:05.551Z,0.00
2018-12-21T06:29:05.553Z,0.00
2018-12-21T06:30:05.652Z,0.00
2018-12-21T06:31:05.529Z,0.00
2018-12-21T06:32:05.512Z,0.00
2018-12-21T06:33:05.498Z,0.00
2018-12-21T06:34:05.511Z,0.00
2018-12-21T06:35:05.501Z,0.00
2018-12-21T06:36:05.470Z,0.00
2018-12-21T06:37:05.457Z,0.00
2018-12-21T06:38:05.458Z,0.00
2018-12-21T06:39:05.459Z,0.00
2018-12-21T06:40:05.437Z,0.00
2018-12-21T06:41:05.440Z,0.00
2018-12-21T06:42:05.404Z,0.00
2018-12-21T06:43:05.400Z,0.00
2018-12-21T06:44:05.387Z,0.00
2018-12-21T06:45:05.380Z,0.00
2018-12-21T06:46:13.984Z,0.00
2018-12-21T06:47:06.361Z,4.00
2018-12-21T06:48:05.345Z,4.00
2018-12-21T06:49:05.335Z,4.00
2018-12-21T06:50:05.311Z,4.00
2018-12-21T06:51:05.300Z,0.00
2018-12-21T06:52:05.331Z,4.00
2018-12-21T06:53:05.317Z,4.00
2018-12-21T06:54:05.279Z,0.00
2018-12-21T06:55:05.275Z,4.00
2018-12-21T06:56:05.259Z,4.00
2018-12-21T06:57:05.242Z,4.00
2018-12-21T06:58:05.235Z,8.00
2018-12-21T06:59:05.216Z,8.00
2018-12-21T07:00:05.220Z,8.00
2018-12-21T07:01:05.196Z,8.00
2018-12-21T07:02:05.291Z,12.00
2018-12-21T07:03:05.173Z,16.00
2018-12-21T07:04:05.186Z,16.00
2018-12-21T07:05:05.153Z,20.00
2018-12-21T07:06:05.156Z,24.00
2018-12-21T07:07:05.140Z,24.00
2018-12-21T07:08:05.131Z,28.00
2018-12-21T07:09:05.135Z,32.00
2018-12-21T07:10:05.109Z,28.00
2018-12-21T07:11:05.113Z,28.00
2018-12-21T07:12:05.087Z,28.00
2018-12-21T07:13:05.071Z,32.00
2018-12-21T07:14:05.055Z,40.00
2018-12-21T07:15:05.051Z,48.00
2018-12-21T07:16:05.053Z,48.00
2018-12-21T07:17:05.038Z,52.00
2018-12-21T07:18:05.051Z,56.00
2018-12-21T07:19:05.008Z,68.00
2018-12-21T07:20:04.995Z,80.00
2018-12-21T07:21:04.989Z,88.00
2018-12-21T07:22:04.974Z,92.00
2018-12-21T07:23:05.095Z,100.00
2018-12-21T07:24:04.989Z,104.00
2018-12-21T07:25:05.108Z,108.00
2018-12-21T07:26:04.940Z,120.00
2018-12-21T07:27:04.922Z,124.00
2018-12-21T07:28:04.914Z,132.00
2018-12-21T07:29:04.894Z,140.00
2018-12-21T07:30:04.901Z,156.00
2018-12-21T07:31:04.907Z,172.00
2018-12-21T07:32:04.877Z,192.00
2018-12-21T07:33:04.866Z,208.00
2018-12-21T07:34:04.849Z,220.00
2018-12-21T07:35:04.852Z,228.00
2018-12-21T07:36:08.529Z,232.00
2018-12-21T07:37:04.860Z,236.00
2018-12-21T07:38:04.811Z,252.00
2018-12-21T07:39:04.802Z,268.00
2018-12-21T07:40:04.794Z,280.00
2018-12-21T07:41:04.774Z,292.00
2018-12-21T07:42:04.769Z,300.00
2018-12-21T07:43:04.777Z,312.00
2018-12-21T07:44:04.736Z,316.00
2018-12-21T07:45:04.731Z,316.00
2018-12-21T07:46:04.728Z,316.00
2018-12-21T07:47:04.700Z,320.00
2018-12-21T07:48:04.700Z,324.00
2018-12-21T07:49:04.695Z,340.00
2018-12-21T07:50:04.683Z,364.00
2018-12-21T07:51:04.674Z,388.00
2018-12-21T07:52:04.664Z,416.00
2018-12-21T07:53:04.636Z,444.00
2018-12-21T07:54:04.648Z,456.00
2018-12-21T07:55:04.618Z,460.00
2018-12-21T07:56:04.608Z,464.00
2018-12-21T07:57:04.616Z,472.00
2018-12-21T07:58:04.588Z,468.00
2018-12-21T07:59:04.589Z,464.00
2018-12-21T08:00:04.568Z,460.00
2018-12-21T08:01:04.560Z,444.00
2018-12-21T08:02:04.554Z,424.00
2018-12-21T08:03:04.551Z,408.00
2018-12-21T08:04:04.520Z,404.00
2018-12-21T08:05:04.517Z,408.00
2018-12-21T08:06:04.519Z,432.00
2018-12-21T08:07:04.485Z,460.00
2018-12-21T08:08:04.476Z,484.00
2018-12-21T08:09:04.471Z,524.00
2018-12-21T08:10:04.467Z,560.00
2018-12-21T08:11:04.443Z,604.00
2018-12-21T08:12:04.455Z,660.00
2018-12-21T08:13:04.432Z,684.00
2018-12-21T08:14:04.433Z,672.00
2018-12-21T08:15:04.412Z,656.00
2018-12-21T08:16:04.396Z,652.00
2018-12-21T08:17:04.377Z,664.00
2018-12-21T08:18:04.371Z,696.00
2018-12-21T08:19:04.379Z,724.00
2018-12-21T08:20:04.364Z,736.00
2018-12-21T08:21:04.338Z,736.00
2018-12-21T08:22:04.328Z,732.00
2018-12-21T08:23:04.330Z,732.00
2018-12-21T08:24:04.307Z,744.00
2018-12-21T08:25:04.318Z,760.00
2018-12-21T08:26:04.289Z,800.00
2018-12-21T08:27:04.284Z,852.00
2018-12-21T08:28:04.273Z,904.00
2018-12-21T08:29:04.247Z,960.00
2018-12-21T08:30:04.259Z,980.00
2018-12-21T08:31:04.238Z,952.00
2018-12-21T08:32:04.217Z,940.00
2018-12-21T08:33:04.216Z,944.00
2018-12-21T08:34:04.192Z,944.00
2018-12-21T08:35:04.198Z,892.00
2018-12-21T08:36:04.184Z,860.00
2018-12-21T08:37:04.175Z,880.00
2018-12-21T08:38:04.173Z,936.00
2018-12-21T08:39:04.149Z,984.00
2018-12-21T08:40:04.130Z,976.00
2018-12-21T08:41:04.158Z,916.00
2018-12-21T08:42:04.118Z,852.00
2018-12-21T08:43:04.108Z,832.00
2018-12-21T08:44:04.099Z,792.00
2018-12-21T08:45:04.083Z,756.00
2018-12-21T08:46:04.073Z,760.00
2018-12-21T08:47:04.070Z,780.00
2018-12-21T08:48:04.053Z,788.00
2018-12-21T08:49:04.029Z,784.00
2018-12-21T08:50:04.020Z,780.00
2018-12-21T08:51:04.020Z,772.00
2018-12-21T08:52:03.999Z,764.00
2018-12-21T08:53:03.995Z,748.00
2018-12-21T08:54:03.975Z,756.00
2018-12-21T08:55:03.973Z,788.00
2018-12-21T08:56:03.956Z,832.00
2018-12-21T08:57:03.963Z,840.00
2018-12-21T08:58:03.944Z,832.00
2018-12-21T08:59:03.927Z,812.00
2018-12-21T09:00:03.944Z,788.00
2018-12-21T09:01:03.901Z,780.00
2018-12-21T09:02:03.904Z,780.00
2018-12-21T09:03:03.890Z,808.00
2018-12-21T09:04:03.877Z,828.00
2018-12-21T09:05:03.867Z,840.00
2018-12-21T09:06:03.868Z,840.00
2018-12-21T09:07:03.849Z,848.00
2018-12-21T09:08:03.830Z,872.00
2018-12-21T09:09:03.889Z,904.00
2018-12-21T09:10:03.806Z,940.00
2018-12-21T09:11:03.808Z,960.00
2018-12-21T09:12:03.800Z,972.00
2018-12-21T09:13:03.775Z,1004.00
2018-12-21T09:14:03.784Z,1036.00
2018-12-21T09:15:03.753Z,1060.00
2018-12-21T09:16:03.748Z,1064.00
2018-12-21T09:17:03.744Z,1060.00
2018-12-21T09:18:03.788Z,1108.00
2018-12-21T09:19:03.708Z,1216.00
2018-12-21T09:20:03.702Z,1344.00
2018-12-21T09:21:03.716Z,1412.00
2018-12-21T09:22:03.684Z,1436.00
2018-12-21T09:23:03.679Z,1428.00
2018-12-21T09:24:03.657Z,1420.00
2018-12-21T09:25:03.692Z,1456.00
2018-12-21T09:26:03.654Z,1528.00
2018-12-21T09:27:03.631Z,1588.00
2018-12-21T09:28:03.614Z,1620.00
2018-12-21T09:29:03.605Z,1636.00
2018-12-21T09:30:03.599Z,1612.00
2018-12-21T09:31:03.588Z,1584.00
2018-12-21T09:32:05.211Z,1564.00
2018-12-21T09:33:03.556Z,1620.00
2018-12-21T09:34:03.542Z,1716.00
2018-12-21T09:35:03.537Z,1768.00
2018-12-21T09:36:03.560Z,1748.00
2018-12-21T09:37:03.622Z,1676.00
2018-12-21T09:38:03.508Z,1612.00
2018-12-21T09:39:03.499Z,1556.00
2018-12-21T09:40:03.489Z,1512.00
2018-12-21T09:41:03.481Z,1476.00
2018-12-21T09:42:03.578Z,1476.00
2018-12-21T09:43:03.447Z,1480.00
2018-12-21T09:44:03.445Z,1492.00
2018-12-21T09:45:03.432Z,1492.00
2018-12-21T09:46:03.417Z,1488.00
2018-12-21T09:47:03.407Z,1468.00
2018-12-21T09:48:03.428Z,1460.00
2018-12-21T09:49:03.385Z,1436.00
2018-12-21T09:50:03.372Z,1396.00
2018-12-21T09:51:03.359Z,1352.00
2018-12-21T09:52:03.350Z,1324.00
2018-12-21T09:53:03.347Z,1332.00
2018-12-21T09:54:09.926Z,1372.00
2018-12-21T09:55:04.344Z,1440.00
2018-12-21T09:56:03.312Z,1540.00
2018-12-21T09:57:03.298Z,1652.00
2018-12-21T09:58:03.303Z,1772.00
2018-12-21T09:59:03.287Z,1908.00
2018-12-21T10:00:03.269Z,2040.00
2018-12-21T10:01:03.258Z,2136.00
2018-12-21T10:02:03.248Z,2188.00
2018-12-21T10:03:03.273Z,2216.00
2018-12-21T10:04:03.228Z,2192.00
2018-12-21T10:05:03.220Z,2144.00
2018-12-21T10:06:03.200Z,2108.00
2018-12-21T10:07:03.183Z,2084.00
2018-12-21T10:08:03.175Z,2052.00
2018-12-21T10:09:03.170Z,2016.00
2018-12-21T10:10:03.164Z,1988.00
2018-12-21T10:11:03.140Z,1964.00
2018-12-21T10:12:11.089Z,1916.00
2018-12-21T10:13:03.132Z,1872.00
2018-12-21T10:14:03.109Z,1852.00
2018-12-21T10:15:03.154Z,1868.00
2018-12-21T10:16:03.086Z,1876.00
2018-12-21T10:17:03.082Z,1868.00
2018-12-21T10:18:03.080Z,1828.00
2018-12-21T10:19:03.082Z,1784.00
2018-12-21T10:20:03.060Z,1728.00
2018-12-21T10:21:03.072Z,1672.00
2018-12-21T10:22:03.042Z,1652.00
2018-12-21T10:23:03.026Z,1656.00
2018-12-21T10:24:03.009Z,1668.00
2018-12-21T10:25:03.005Z,1704.00
2018-12-21T10:26:02.992Z,1744.00
2018-12-21T10:27:02.981Z,1764.00
2018-12-21T10:28:02.993Z,1736.00
2018-12-21T10:29:02.949Z,1692.00
2018-12-21T10:30:02.946Z,1680.00
2018-12-21T10:31:02.940Z,1704.00
2018-12-21T10:32:02.942Z,1740.00
2018-12-21T10:33:02.904Z,1792.00
2018-12-21T10:34:02.912Z,1812.00
2018-12-21T10:35:02.885Z,1772.00
2018-12-21T10:36:02.881Z,1696.00
2018-12-21T10:37:02.888Z,1632.00
2018-12-21T10:38:02.848Z,1588.00
2018-12-21T10:39:02.840Z,1600.00
2018-12-21T10:40:02.839Z,1632.00
2018-12-21T10:41:02.825Z,1640.00
2018-12-21T10:42:02.816Z,1684.00
2018-12-21T10:43:02.851Z,1776.00
2018-12-21T10:44:02.795Z,1832.00
2018-12-21T10:45:02.783Z,1788.00
2018-12-21T10:46:02.763Z,1672.00
2018-12-21T10:47:02.762Z,1540.00
2018-12-21T10:48:02.760Z,1440.00
2018-12-21T10:49:02.761Z,1396.00
2018-12-21T10:50:02.769Z,1364.00
2018-12-21T10:51:02.723Z,1332.00
2018-12-21T10:52:02.715Z,1284.00
2018-12-21T10:53:02.698Z,1224.00
2018-12-21T10:54:02.693Z,1164.00
2018-12-21T10:55:02.666Z,1156.00
2018-12-21T10:56:02.665Z,1224.00
2018-12-21T10:57:02.652Z,1340.00
2018-12-21T10:58:02.637Z,1432.00
2018-12-21T10:59:02.674Z,1436.00
2018-12-21T11:00:02.623Z,1376.00
2018-12-21T11:01:02.611Z,1260.00
2018-12-21T11:02:02.599Z,1124.00
2018-12-21T11:03:02.596Z,1068.00
2018-12-21T11:04:02.575Z,1116.00
2018-12-21T11:05:02.600Z,1216.00
2018-12-21T11:06:02.550Z,1284.00
2018-12-21T11:07:02.535Z,1272.00
2018-12-21T11:08:02.534Z,1212.00
2018-12-21T11:09:02.523Z,1164.00
2018-12-21T11:10:02.513Z,1132.00
2018-12-21T11:11:02.509Z,1100.00
2018-12-21T11:12:02.545Z,1120.00
2018-12-21T11:13:02.486Z,1184.00
2018-12-21T11:14:02.473Z,1280.00
2018-12-21T11:15:02.452Z,1384.00
2018-12-21T11:16:02.482Z,1452.00
2018-12-21T11:17:02.429Z,1496.00
2018-12-21T11:18:02.421Z,1520.00
2018-12-21T11:19:02.420Z,1484.00
2018-12-21T11:20:02.406Z,1488.00
2018-12-21T11:21:02.431Z,1476.00
2018-12-21T11:22:02.389Z,1448.00
2018-12-21T11:23:02.374Z,1380.00
2018-12-21T11:24:02.361Z,1316.00
2018-12-21T11:25:02.346Z,1268.00
2018-12-21T11:26:02.341Z,1252.00
2018-12-21T11:27:02.349Z,1284.00
2018-12-21T11:28:02.314Z,1368.00
2018-12-21T11:29:02.317Z,1408.00
2018-12-21T11:30:02.291Z,1404.00
2018-12-21T11:31:02.293Z,1380.00
2018-12-21T11:32:02.310Z,1332.00
2018-12-21T11:33:02.273Z,1264.00
2018-12-21T11:34:02.249Z,1180.00
2018-12-21T11:35:02.248Z,1108.00
2018-12-21T11:36:02.228Z,1052.00
2018-12-21T11:37:02.247Z,1012.00
2018-12-21T11:38:02.214Z,964.00
2018-12-21T11:39:02.193Z,940.00
2018-12-21T11:40:02.195Z,912.00
2018-12-21T11:41:02.183Z,892.00
2018-12-21T11:42:02.158Z,884.00
2018-12-21T11:43:02.171Z,896.00
2018-12-21T11:44:02.167Z,896.00
2018-12-21T11:45:02.129Z,872.00
2018-12-21T11:46:02.128Z,836.00
2018-12-21T11:47:02.123Z,828.00
2018-12-21T11:48:02.116Z,816.00
2018-12-21T11:49:02.108Z,788.00
2018-12-21T11:50:02.082Z,776.00
2018-12-21T11:51:02.076Z,788.00
2018-12-21T11:52:02.071Z,812.00
2018-12-21T11:53:02.063Z,832.00
2018-12-21T11:54:02.035Z,832.00
2018-12-21T11:55:02.036Z,796.00
2018-12-21T11:56:02.007Z,736.00
2018-12-21T11:57:02.001Z,704.00
2018-12-21T11:58:01.990Z,724.00
2018-12-21T11:59:02.023Z,772.00
2018-12-21T12:00:01.984Z,820.00
2018-12-21T12:01:01.957Z,868.00
2018-12-21T12:02:01.949Z,928.00
2018-12-21T12:03:01.946Z,992.00
2018-12-21T12:04:01.926Z,1028.00
2018-12-21T12:05:03.127Z,1032.00
2018-12-21T12:06:01.902Z,1016.00
2018-12-21T12:07:01.902Z,1032.00
2018-12-21T12:08:01.878Z,1060.00
2018-12-21T12:09:06.219Z,1092.00
2018-12-21T12:10:01.886Z,1088.00
2018-12-21T12:11:01.858Z,1060.00
2018-12-21T12:12:01.847Z,1004.00
2018-12-21T12:13:01.842Z,960.00
2018-12-21T12:14:01.821Z,924.00
2018-12-21T12:15:01.810Z,872.00
2018-12-21T12:16:01.810Z,816.00
2018-12-21T12:17:01.780Z,784.00
2018-12-21T12:18:01.784Z,792.00
2018-12-21T12:19:01.767Z,784.00
2018-12-21T12:20:01.766Z,780.00
2018-12-21T12:21:01.759Z,764.00
2018-12-21T12:22:01.724Z,760.00
2018-12-21T12:23:01.753Z,808.00
2018-12-21T12:24:01.802Z,832.00
2018-12-21T12:25:01.714Z,820.00
2018-12-21T12:26:01.702Z,796.00
2018-12-21T12:27:01.688Z,804.00
2018-12-21T12:28:01.664Z,868.00
2018-12-21T12:29:01.683Z,948.00
2018-12-21T12:30:01.653Z,1004.00
2018-12-21T12:31:01.649Z,1012.00
2018-12-21T12:32:01.622Z,1012.00
2018-12-21T12:33:01.627Z,1032.00
2018-12-21T12:34:01.644Z,984.00
2018-12-21T12:35:01.593Z,888.00
2018-12-21T12:36:01.640Z,812.00
2018-12-21T12:37:01.591Z,760.00
2018-12-21T12:38:01.558Z,688.00
2018-12-21T12:39:01.565Z,620.00
2018-12-21T12:40:01.553Z,552.00
2018-12-21T12:41:06.546Z,480.00
2018-12-21T12:42:03.713Z,388.00
2018-12-21T12:43:01.497Z,332.00
2018-12-21T12:44:01.491Z,292.00
2018-12-21T12:45:01.483Z,280.00
2018-12-21T12:46:01.480Z,284.00
2018-12-21T12:47:01.466Z,280.00
2018-12-21T12:48:01.518Z,284.00
2018-12-21T12:49:01.433Z,284.00
2018-12-21T12:50:01.437Z,280.00